Milwaukee, Wisconsin
Traffic Map
Current Weather Conditions
Milwaukee, Wisconsin
Broken Clouds
Broken Clouds
41°
Feels Like: 34°
Wind Chill: 34° Ceiling: 25000
Heat Index: 41° Visibility: 10mi
Dew Point: 35° Wind: 12mph
Humidity: 79% Direction: 20° (NNE)
Pressure: 30.09in Gusts: 0mph
Raw Report DataKMKE 232352Z 02010KT 10SM FEW020 FEW200 BKN250 05/02 A3009 RMK AO2 SLP194 T00500017 10217 20050 50001
Traffic Incident Summary
Active as of:
Severity:
Category:
InformationThere was an issue retrieving the traffic information for this location. Please try a different location or try again shortly.
Advertisements
Track Severe Weather on mobile